Time;durP1;ratioP1;P1;durP2;ratioP2;P2;SDS_P1;SDS_P2;PMS_P1;PMS_P2;Temp;Humidity;BMP_temperature;BMP_pressure;BME280_temperature;BME280_humidity;BME280_pressure;Samples;Min_cycle;Max_cycle;Signal;HPM_P1;HPM_P2
2023/12/27 00:01:09;;;;;;;4.03;1.60;;;23.60;79.40;;;;;;5103585;28;20186;-20
2023/12/27 00:03:37;;;;;;;4.80;1.30;;;23.20;79.50;;;;;;5105631;28;20078;-23
2023/12/27 00:06:04;;;;;;;4.45;1.50;;;23.00;80.00;;;;;;5102653;28;20072;-22
2023/12/27 00:08:30;;;;;;;4.25;1.50;;;22.90;81.20;;;;;;5102314;28;20163;-23
2023/12/27 00:10:57;;;;;;;7.30;1.90;;;22.80;80.80;;;;;;5103907;28;20068;-26
2023/12/27 00:13:23;;;;;;;5.50;1.42;;;22.80;81.00;;;;;;5102286;28;20077;-22
2023/12/27 00:15:49;;;;;;;4.78;1.60;;;22.80;81.00;;;;;;5105280;28;20107;-24
2023/12/27 00:18:17;;;;;;;2.63;1.35;;;22.80;81.10;;;;;;5102472;28;20105;-22
2023/12/27 00:20:47;;;;;;;5.07;1.40;;;22.80;81.20;;;;;;5103593;28;20419;-21
2023/12/27 00:23:14;;;;;;;3.95;1.50;;;22.80;81.20;;;;;;5104556;28;20103;-22
2023/12/27 00:25:40;;;;;;;3.05;1.50;;;22.80;81.30;;;;;;5102471;28;20113;-23
2023/12/27 00:28:06;;;;;;;3.08;1.50;;;22.80;81.30;;;;;;5093299;28;20159;-22
2023/12/27 00:30:33;;;;;;;6.50;1.40;;;22.80;81.30;;;;;;5099216;28;20073;-25
2023/12/27 00:33:00;;;;;;;1.85;1.17;;;22.80;81.40;;;;;;5085778;28;20515;-32
2023/12/27 00:35:26;;;;;;;3.80;1.45;;;22.80;81.60;;;;;;5089111;28;20103;-24
2023/12/27 00:42:05;;;;;;;27.50;8.50;;;22.50;62.90;;;;;;5146861;27;20544;-62
2023/12/27 00:44:31;;;;;;;27.70;8.25;;;21.10;61.70;;;;;;5145711;27;20159;-63
2023/12/27 00:46:57;;;;;;;18.88;8.15;;;20.10;64.30;;;;;;5124785;27;20120;-63
2023/12/27 00:49:24;;;;;;;14.88;5.85;;;19.40;65.90;;;;;;5143605;27;20068;-62
2023/12/27 00:51:50;;;;;;;23.60;7.25;;;18.90;67.30;;;;;;5144148;27;20111;-63
2023/12/27 00:54:18;;;;;;;20.15;7.70;;;18.60;68.90;;;;;;5144702;27;20063;-61
2023/12/27 00:56:45;;;;;;;23.30;8.05;;;18.30;69.70;;;;;;5124419;27;20359;-62
2023/12/27 00:59:12;;;;;;;36.50;10.82;;;18.10;71.10;;;;;;5144613;27;20076;-62
2023/12/27 01:01:38;;;;;;;38.58;8.93;;;18.00;71.70;;;;;;5145578;27;20095;-63
2023/12/27 01:04:04;;;;;;;28.40;10.13;;;17.90;71.40;;;;;;5143147;27;20541;-64
2023/12/27 01:06:31;;;;;;;34.45;13.23;;;17.70;72.10;;;;;;5127420;27;20075;-65
2023/12/27 01:08:57;;;;;;;37.80;13.32;;;17.60;72.00;;;;;;5142965;27;20087;-63
2023/12/27 01:11:24;;;;;;;41.50;13.68;;;17.50;72.30;;;;;;5144010;27;20071;-66
2023/12/27 01:13:51;;;;;;;45.38;13.82;;;17.40;73.50;;;;;;5142442;27;20125;-64
2023/12/27 01:16:17;;;;;;;39.00;12.95;;;17.30;73.90;;;;;;5143559;27;20081;-64
2023/12/27 01:18:44;;;;;;;40.67;12.95;;;17.20;73.90;;;;;;5144123;27;20151;-63
2023/12/27 01:21:12;;;;;;;45.25;12.30;;;17.20;74.10;;;;;;5142815;27;20985;-64
2023/12/27 01:23:39;;;;;;;53.78;14.63;;;17.10;74.60;;;;;;5143710;27;20082;-62
2023/12/27 01:26:06;;;;;;;45.28;12.52;;;17.00;75.70;;;;;;5144947;27;20507;-65
2023/12/27 01:28:33;;;;;;;55.33;13.73;;;17.00;76.00;;;;;;5144172;27;20146;-63
2023/12/27 01:30:59;;;;;;;37.53;13.55;;;16.90;76.80;;;;;;5145084;27;20079;-62
2023/12/27 01:33:26;;;;;;;48.42;14.00;;;16.90;76.60;;;;;;5126064;27;20079;-62
2023/12/27 01:35:52;;;;;;;68.30;28.65;;;16.70;78.50;;;;;;5144282;27;20071;-66
2023/12/27 01:38:18;;;;;;;67.90;24.13;;;16.70;78.10;;;;;;5143695;27;20513;-63
2023/12/27 01:40:50;;;;;;;57.67;24.50;;;16.60;78.80;;;;;;5142690;27;20111;-64
2023/12/27 01:43:17;;;;;;;54.10;18.10;;;16.60;80.60;;;;;;5144835;27;20082;-64
2023/12/27 01:45:47;;;;;;;59.67;16.80;;;16.50;81.20;;;;;;5143151;27;20079;-64
2023/12/27 01:48:13;;;;;;;52.00;17.23;;;16.40;82.70;;;;;;5142103;27;20072;-65
2023/12/27 01:50:40;;;;;;;55.97;14.82;;;16.30;84.20;;;;;;5144567;27;20544;-65
2023/12/27 01:53:08;;;;;;;56.22;14.85;;;16.20;84.20;;;;;;5132276;27;20122;-67
2023/12/27 01:55:35;;;;;;;44.05;13.82;;;16.10;83.60;;;;;;5130946;27;20083;-64
2023/12/27 01:58:03;;;;;;;69.68;18.25;;;16.00;84.10;;;;;;5129509;27;20084;-64
2023/12/27 02:00:29;;;;;;;61.75;17.88;;;15.90;85.10;;;;;;5112956;27;20111;-66
2023/12/27 02:02:57;;;;;;;60.28;18.10;;;15.90;85.30;;;;;;5130532;27;20076;-65
2023/12/27 02:05:23;;;;;;;55.05;17.35;;;15.80;87.10;;;;;;5130598;27;20120;-65
2023/12/27 02:07:50;;;;;;;68.55;20.17;;;15.70;86.80;;;;;;5127827;27;20076;-65
2023/12/27 02:10:17;;;;;;;80.70;22.25;;;15.70;87.00;;;;;;5129779;27;20084;-67
2023/12/27 02:12:44;;;;;;;72.28;21.75;;;15.60;87.70;;;;;;5130786;27;20105;-67
2023/12/27 02:15:10;;;;;;;77.15;21.00;;;15.60;88.20;;;;;;5129442;27;20189;-62
2023/12/27 02:17:38;;;;;;;89.43;23.05;;;15.60;88.60;;;;;;5111891;27;20159;-64
2023/12/27 02:20:05;;;;;;;84.30;23.00;;;15.50;90.00;;;;;;5129819;27;20099;-63
2023/12/27 02:22:35;;;;;;;78.47;21.33;;;15.50;90.50;;;;;;5128071;27;20107;-64
2023/12/27 02:25:02;;;;;;;89.82;22.90;;;15.50;91.00;;;;;;5130799;27;20498;-65
2023/12/27 02:27:28;;;;;;;84.20;22.08;;;15.40;90.60;;;;;;5129934;27;20075;-64
2023/12/27 02:29:55;;;;;;;67.32;23.65;;;15.40;91.70;;;;;;5129730;27;20078;-65
2023/12/27 02:32:21;;;;;;;89.28;26.42;;;15.30;91.30;;;;;;5112174;27;20098;-64
2023/12/27 02:34:48;;;;;;;107.20;28.80;;;15.30;90.60;;;;;;5126723;27;20463;-64
2023/12/27 02:37:14;;;;;;;109.78;28.63;;;15.30;91.80;;;;;;5130973;27;20082;-63
2023/12/27 02:39:41;;;;;;;87.45;25.85;;;15.20;91.00;;;;;;5128747;27;20107;-63
2023/12/27 02:42:07;;;;;;;111.38;26.77;;;15.20;90.00;;;;;;5129250;27;20169;-64
2023/12/27 02:44:34;;;;;;;101.45;23.98;;;15.10;90.00;;;;;;5128197;27;20102;-63
2023/12/27 02:47:03;;;;;;;92.88;23.63;;;15.10;89.70;;;;;;5123563;27;20080;-64
2023/12/27 02:49:29;;;;;;;108.00;26.58;;;15.10;90.00;;;;;;5125199;27;20088;-63
2023/12/27 02:51:56;;;;;;;86.30;23.98;;;15.10;91.10;;;;;;5128593;27;20080;-67
2023/12/27 02:54:22;;;;;;;86.82;22.90;;;14.90;91.50;;;;;;5128528;27;20075;-68
2023/12/27 02:56:49;;;;;;;112.25;25.80;;;14.90;91.40;;;;;;5129485;27;20125;-64
2023/12/27 02:59:16;;;;;;;112.00;24.80;;;14.80;91.70;;;;;;5127337;27;20079;-64
2023/12/27 03:01:42;;;;;;;110.65;24.63;;;14.70;91.80;;;;;;5128230;27;20156;-66
2023/12/27 03:04:09;;;;;;;78.70;22.92;;;14.70;91.80;;;;;;5128480;27;20545;-65
2023/12/27 03:06:35;;;;;;;114.03;24.98;;;14.60;92.40;;;;;;5126485;27;20422;-64
2023/12/27 03:09:02;;;;;;;100.70;25.17;;;14.50;92.50;;;;;;5110872;27;20141;-66
2023/12/27 03:11:31;;;;;;;107.47;24.85;;;14.40;92.90;;;;;;5128240;27;20205;-65
2023/12/27 03:13:57;;;;;;;105.65;26.52;;;14.40;93.10;;;;;;5130078;27;20103;-63
2023/12/27 03:16:24;;;;;;;127.72;27.70;;;14.40;93.10;;;;;;5128941;27;20147;-66
2023/12/27 03:18:50;;;;;;;112.47;25.27;;;14.40;93.00;;;;;;5126240;27;20159;-66
2023/12/27 03:21:17;;;;;;;89.38;24.45;;;14.40;93.10;;;;;;5126993;27;20130;-61
2023/12/27 03:23:43;;;;;;;116.78;26.52;;;14.30;94.10;;;;;;5128992;27;20075;-63
2023/12/27 03:26:10;;;;;;;93.53;25.52;;;14.30;94.10;;;;;;5128566;27;20067;-63
2023/12/27 03:28:36;;;;;;;98.70;25.17;;;14.30;94.50;;;;;;5126539;27;20117;-64
2023/12/27 03:31:03;;;;;;;108.25;25.80;;;14.30;94.50;;;;;;5128055;27;20091;-63
2023/12/27 03:33:30;;;;;;;101.25;25.08;;;14.20;94.80;;;;;;5128889;27;20083;-62
2023/12/27 03:35:57;;;;;;;108.20;27.42;;;14.20;94.80;;;;;;5129007;27;20076;-64
2023/12/27 03:38:23;;;;;;;121.78;28.20;;;14.20;94.90;;;;;;5129269;27;20167;-63
2023/12/27 03:40:51;;;;;;;113.38;29.05;;;14.20;95.00;;;;;;5127073;27;20480;-63
2023/12/27 03:43:18;;;;;;;108.25;30.77;;;14.10;95.20;;;;;;5128795;27;20070;-64
2023/12/27 03:45:45;;;;;;;118.45;28.77;;;14.00;95.20;;;;;;5126764;27;20075;-62
2023/12/27 03:48:12;;;;;;;134.07;29.13;;;14.00;95.50;;;;;;5127076;27;20155;-62
2023/12/27 03:50:38;;;;;;;117.85;28.35;;;14.00;95.80;;;;;;5126308;27;20084;-61
2023/12/27 03:53:05;;;;;;;123.38;26.95;;;13.90;95.80;;;;;;5128567;27;20076;-63
2023/12/27 03:55:31;;;;;;;143.57;30.13;;;13.90;95.90;;;;;;5125559;27;20253;-62
2023/12/27 03:57:58;;;;;;;128.38;28.15;;;13.80;96.20;;;;;;5127080;27;20071;-61
2023/12/27 04:00:24;;;;;;;124.18;27.88;;;13.80;96.30;;;;;;5127211;27;20104;-61
2023/12/27 04:02:51;;;;;;;130.43;28.83;;;13.80;96.60;;;;;;5126909;27;20533;-63
2023/12/27 04:05:17;;;;;;;115.90;29.77;;;13.80;96.50;;;;;;5124941;27;20115;-63
2023/12/27 04:07:44;;;;;;;136.68;31.52;;;13.70;96.80;;;;;;5126360;27;20075;-63
2023/12/27 04:10:10;;;;;;;127.70;34.97;;;13.70;97.00;;;;;;5108748;27;20162;-61
2023/12/27 04:12:37;;;;;;;129.15;37.28;;;13.70;97.40;;;;;;5127442;27;20154;-64
2023/12/27 04:15:04;;;;;;;153.00;44.08;;;13.70;97.70;;;;;;5125068;27;20549;-64
2023/12/27 04:17:30;;;;;;;165.93;44.45;;;13.70;97.60;;;;;;5126920;27;20075;-64
2023/12/27 04:19:57;;;;;;;162.30;51.00;;;13.60;97.90;;;;;;5126913;27;20503;-64
2023/12/27 04:22:23;;;;;;;194.32;53.33;;;13.60;98.50;;;;;;5127117;27;20076;-63
2023/12/27 04:24:50;;;;;;;170.85;51.15;;;13.50;98.70;;;;;;5126078;27;20072;-64
2023/12/27 04:27:16;;;;;;;173.60;54.20;;;13.50;99.00;;;;;;5126361;27;20525;-63
2023/12/27 04:29:43;;;;;;;167.35;49.90;;;13.50;99.00;;;;;;5126209;27;20079;-66
2023/12/27 04:32:09;;;;;;;141.10;46.13;;;13.50;99.40;;;;;;5126243;27;20189;-62
2023/12/27 04:34:35;;;;;;;;;;;13.40;99.40;;;;;;5127879;27;20103;-62
2023/12/27 04:37:01;;;;;;;167.30;48.75;;;13.40;99.50;;;;;;5107659;28;19956;-65
2023/12/27 04:39:28;;;;;;;174.20;48.72;;;13.30;99.80;;;;;;5126074;28;20072;-63
2023/12/27 04:41:55;;;;;;;139.27;41.60;;;13.30;99.90;;;;;;5126820;28;20135;-65
2023/12/27 04:44:21;;;;;;;127.40;44.20;;;13.30;99.90;;;;;;5108891;28;20445;-63
2023/12/27 04:46:48;;;;;;;171.07;47.58;;;13.30;99.90;;;;;;5126603;28;20091;-63
2023/12/27 04:49:14;;;;;;;149.02;44.97;;;13.30;99.90;;;;;;5126185;28;20105;-68
2023/12/27 04:51:41;;;;;;;140.85;43.38;;;13.20;99.90;;;;;;5126751;28;20067;-63
2023/12/27 04:54:07;;;;;;;164.93;43.80;;;13.20;99.90;;;;;;5132878;28;20076;-64
2023/12/27 04:56:34;;;;;;;152.30;42.38;;;13.10;99.90;;;;;;5127985;28;20113;-65
2023/12/27 04:59:00;;;;;;;146.63;42.67;;;13.10;99.90;;;;;;5127269;28;20151;-64
2023/12/27 05:01:27;;;;;;;139.40;40.78;;;13.10;99.90;;;;;;5125444;28;20104;-65
2023/12/27 05:03:53;;;;;;;;;;;13.20;99.90;;;;;;5127458;28;20121;-65
2023/12/27 05:06:19;;;;;;;126.38;41.60;;;13.10;99.90;;;;;;5126930;28;19956;-64
2023/12/27 05:08:46;;;;;;;137.88;40.67;;;13.10;99.90;;;;;;5126909;28;20522;-65
2023/12/27 05:11:21;;;;;;;124.90;39.67;;;13.00;99.90;;;;;;5127008;28;20183;-63
2023/12/27 05:13:48;;;;;;;121.40;38.85;;;13.00;99.90;;;;;;5107817;28;20090;-64
2023/12/27 05:16:16;;;;;;;125.78;41.25;;;12.90;99.90;;;;;;5124581;28;20275;-62
2023/12/27 05:18:44;;;;;;;138.88;41.83;;;12.90;99.90;;;;;;5126484;28;20533;-65
2023/12/27 05:21:12;;;;;;;117.18;39.22;;;12.80;99.90;;;;;;5125065;28;20150;-63
2023/12/27 05:23:39;;;;;;;125.15;38.10;;;12.90;99.90;;;;;;5125158;28;20068;-64
2023/12/27 05:26:06;;;;;;;118.53;37.72;;;12.80;99.90;;;;;;5127232;27;20580;-63
2023/12/27 05:28:33;;;;;;;122.57;36.30;;;12.80;99.90;;;;;;5128381;27;20521;-63
2023/12/27 05:31:00;;;;;;;136.75;34.25;;;12.80;99.90;;;;;;5129983;27;20473;-65
2023/12/27 05:33:26;;;;;;;126.80;34.80;;;12.80;99.90;;;;;;5130365;27;20072;-64
2023/12/27 05:35:53;;;;;;;125.00;34.83;;;12.80;99.90;;;;;;5129716;27;20541;-65
2023/12/27 05:38:19;;;;;;;139.20;37.08;;;12.70;99.90;;;;;;5130682;27;20154;-65
2023/12/27 05:40:46;;;;;;;125.38;36.30;;;12.80;99.90;;;;;;5128598;27;20236;-64
2023/12/27 05:43:12;;;;;;;123.78;34.60;;;12.70;99.90;;;;;;5130180;27;20115;-64
2023/12/27 05:45:38;;;;;;;119.35;38.33;;;12.70;99.90;;;;;;5130525;27;20162;-64
2023/12/27 05:48:05;;;;;;;;;;;12.80;99.90;;;;;;5112562;27;20079;-64
2023/12/27 05:50:31;;;;;;;111.10;37.78;;;12.80;99.90;;;;;;5130630;27;20066;-64
2023/12/27 05:52:57;;;;;;;142.25;40.75;;;12.70;99.90;;;;;;5131042;27;20072;-62
2023/12/27 05:55:24;;;;;;;;;;;12.80;99.90;;;;;;5128411;27;20235;-63
2023/12/27 05:57:50;;;;;;;128.32;40.92;;;12.70;99.90;;;;;;5129315;27;20050;-61
2023/12/27 06:00:17;;;;;;;136.73;38.95;;;12.60;99.90;;;;;;5129121;27;20103;-63
2023/12/27 06:02:43;;;;;;;131.48;40.20;;;12.60;99.90;;;;;;5128452;27;20071;-62
2023/12/27 06:05:09;;;;;;;;;;;12.60;99.90;;;;;;5127255;27;20610;-61
2023/12/27 06:07:36;;;;;;;139.07;43.58;;;12.50;99.90;;;;;;5128962;27;19956;-63
2023/12/27 06:10:04;;;;;;;126.82;42.78;;;12.50;99.90;;;;;;5111179;27;20169;-63
2023/12/27 06:12:30;;;;;;;107.78;42.97;;;12.50;99.90;;;;;;5127492;27;20087;-63
2023/12/27 06:14:57;;;;;;;132.52;44.97;;;12.50;99.90;;;;;;5109965;27;20082;-63
2023/12/27 06:17:23;;;;;;;133.73;44.67;;;12.50;99.90;;;;;;5109697;27;20071;-63
2023/12/27 06:19:50;;;;;;;131.10;46.92;;;12.50;99.90;;;;;;5129242;27;20075;-63
2023/12/27 06:22:16;;;;;;;136.40;46.63;;;12.50;99.90;;;;;;5128115;27;20075;-60
2023/12/27 06:24:43;;;;;;;122.47;45.38;;;12.50;99.90;;;;;;5128073;27;20163;-64
2023/12/27 06:27:10;;;;;;;125.10;47.05;;;12.40;99.90;;;;;;5128799;27;20138;-62
2023/12/27 06:29:36;;;;;;;123.82;46.35;;;12.50;99.90;;;;;;5128008;27;20538;-62
2023/12/27 06:32:03;;;;;;;;;;;12.40;99.90;;;;;;5129089;27;20079;-61
2023/12/27 06:34:29;;;;;;;152.60;49.05;;;12.40;99.90;;;;;;5129601;27;19955;-63
2023/12/27 06:36:55;;;;;;;148.75;49.38;;;12.30;99.90;;;;;;5129083;27;20083;-63
2023/12/27 06:39:22;;;;;;;158.90;52.33;;;12.30;99.90;;;;;;5128446;27;20067;-63
2023/12/27 06:41:48;;;;;;;;;;;12.40;99.90;;;;;;5127936;27;20112;-63
2023/12/27 06:44:15;;;;;;;175.02;59.45;;;12.30;99.90;;;;;;5127459;27;20349;-63
2023/12/27 06:46:41;;;;;;;173.80;64.57;;;12.30;99.90;;;;;;5109236;27;20072;-64
2023/12/27 06:49:07;;;;;;;;;;;12.20;99.90;;;;;;5129324;27;20072;-63
2023/12/27 06:51:33;;;;;;;208.32;65.72;;;12.20;99.90;;;;;;5126801;27;20039;-62
2023/12/27 06:54:00;;;;;;;183.45;64.43;;;12.20;99.90;;;;;;5127624;27;20068;-62
2023/12/27 06:56:27;;;;;;;195.60;73.72;;;12.20;99.90;;;;;;5126808;27;20072;-64
2023/12/27 06:58:53;;;;;;;;;;;12.10;99.90;;;;;;5111152;27;20097;-62
2023/12/27 07:01:19;;;;;;;186.93;72.25;;;12.10;99.90;;;;;;5128290;27;20002;-63
2023/12/27 07:03:46;;;;;;;168.85;66.50;;;12.10;99.90;;;;;;5128684;27;20064;-62
2023/12/27 07:06:12;;;;;;;177.15;65.95;;;12.20;99.90;;;;;;5126797;27;20075;-63
2023/12/27 07:08:39;;;;;;;172.30;63.42;;;12.30;99.90;;;;;;5126483;27;20163;-64
2023/12/27 07:11:05;;;;;;;167.95;60.35;;;12.40;99.90;;;;;;5127452;27;20072;-65
2023/12/27 07:13:32;;;;;;;164.88;71.68;;;12.40;99.90;;;;;;5110261;27;20089;-63
2023/12/27 07:15:58;;;;;;;141.93;53.65;;;12.40;99.90;;;;;;5126473;27;20107;-61
2023/12/27 07:18:25;;;;;;;116.47;46.47;;;12.30;99.90;;;;;;5129252;27;20078;-63
2023/12/27 07:20:51;;;;;;;137.07;45.80;;;12.30;99.90;;;;;;5129042;27;20095;-63
2023/12/27 07:23:18;;;;;;;;;;;12.20;99.90;;;;;;5129838;27;20068;-63
2023/12/27 07:25:44;;;;;;;99.43;40.90;;;12.20;99.90;;;;;;5128544;27;19956;-64
2023/12/27 07:28:11;;;;;;;99.38;40.50;;;12.30;99.90;;;;;;5128208;27;20072;-63
2023/12/27 07:30:37;;;;;;;108.20;40.53;;;12.30;99.90;;;;;;5127216;27;20075;-64
2023/12/27 07:33:04;;;;;;;103.72;38.25;;;12.20;99.90;;;;;;5128202;27;20103;-64
2023/12/27 07:35:31;;;;;;;109.72;35.17;;;12.20;99.90;;;;;;5127692;27;20076;-63
2023/12/27 07:37:57;;;;;;;90.03;35.92;;;12.10;99.90;;;;;;5127563;27;20067;-63
2023/12/27 07:40:23;;;;;;;;;;;12.00;99.90;;;;;;5126119;27;20204;-64
2023/12/27 07:42:51;;;;;;;100.10;34.03;;;12.00;99.90;;;;;;5113046;27;19983;-64
2023/12/27 07:45:21;;;;;;;97.97;33.45;;;12.10;99.90;;;;;;5137802;27;20116;-64
2023/12/27 07:47:47;;;;;;;101.03;33.35;;;12.10;99.90;;;;;;5131563;27;20076;-62
2023/12/27 07:50:14;;;;;;;80.00;29.90;;;12.10;99.90;;;;;;5127902;27;20128;-64
2023/12/27 07:52:40;;;;;;;82.45;29.20;;;12.00;99.90;;;;;;5127944;27;20144;-63
2023/12/27 07:55:07;;;;;;;85.63;29.05;;;12.10;99.90;;;;;;5125040;27;20080;-63
2023/12/27 07:57:33;;;;;;;91.72;28.83;;;12.20;99.90;;;;;;5126128;27;20079;-64
2023/12/27 08:00:00;;;;;;;85.72;29.55;;;12.10;99.90;;;;;;5126527;27;20072;-64
2023/12/27 08:02:26;;;;;;;84.93;28.08;;;12.10;99.90;;;;;;5127310;27;20072;-64
2023/12/27 08:04:53;;;;;;;81.70;26.40;;;12.10;99.90;;;;;;5125711;27;20082;-63
2023/12/27 08:07:19;;;;;;;75.07;27.00;;;12.10;99.90;;;;;;5123442;27;20078;-63
2023/12/27 08:09:46;;;;;;;75.22;27.48;;;12.10;99.90;;;;;;5125776;27;20076;-63
2023/12/27 08:12:12;;;;;;;79.57;26.73;;;12.10;99.90;;;;;;5124996;27;20082;-61
2023/12/27 08:14:38;;;;;;;88.47;27.60;;;12.00;99.90;;;;;;5125629;27;20071;-63
2023/12/27 08:17:05;;;;;;;73.75;25.27;;;11.90;99.90;;;;;;5125865;27;20076;-63
2023/12/27 08:19:31;;;;;;;;;;;11.90;99.90;;;;;;5126845;27;20120;-64
2023/12/27 08:21:57;;;;;;;72.20;26.63;;;12.00;99.90;;;;;;5127041;27;19987;-61
2023/12/27 08:24:23;;;;;;;;;;;12.00;99.90;;;;;;5125674;27;20068;-64
2023/12/27 08:26:50;;;;;;;79.30;28.40;;;11.90;99.90;;;;;;5106912;27;20414;-63
2023/12/27 08:29:16;;;;;;;;;;;11.70;99.90;;;;;;5123442;27;20071;-62
2023/12/27 08:31:42;;;;;;;87.28;28.13;;;11.60;99.90;;;;;;5126322;27;19964;-64
2023/12/27 08:34:09;;;;;;;68.40;26.17;;;11.60;99.90;;;;;;5108374;27;20178;-64
2023/12/27 08:36:35;;;;;;;;;;;11.60;99.90;;;;;;5126845;27;20154;-64
2023/12/27 08:39:01;;;;;;;67.68;26.05;;;11.60;99.90;;;;;;5105917;28;19972;-62
2023/12/27 08:41:28;;;;;;;69.85;26.23;;;11.70;99.90;;;;;;5127260;28;20115;-63
2023/12/27 08:43:54;;;;;;;72.03;26.35;;;11.60;99.90;;;;;;5125842;28;20076;-64
2023/12/27 08:46:21;;;;;;;76.25;26.55;;;11.50;99.90;;;;;;5127402;28;20068;-63
2023/12/27 08:48:48;;;;;;;67.65;26.52;;;11.50;99.90;;;;;;5108051;28;20185;-64
2023/12/27 08:51:14;;;;;;;83.07;26.55;;;11.40;99.90;;;;;;5125177;28;20107;-64
2023/12/27 08:53:41;;;;;;;75.20;26.42;;;11.50;99.90;;;;;;5126813;28;20076;-64
2023/12/27 08:56:08;;;;;;;72.70;27.40;;;11.40;99.90;;;;;;5126695;28;20072;-63
2023/12/27 08:58:35;;;;;;;68.63;26.75;;;11.40;99.90;;;;;;5125522;28;20072;-64
2023/12/27 09:01:02;;;;;;;69.75;26.77;;;11.40;99.90;;;;;;5125507;27;20099;-64
2023/12/27 09:03:28;;;;;;;71.28;25.92;;;11.30;99.90;;;;;;5130183;27;20269;-62
2023/12/27 09:05:55;;;;;;;76.70;26.10;;;11.40;99.90;;;;;;5130287;27;20099;-62
2023/12/27 09:08:21;;;;;;;79.25;26.40;;;11.30;99.90;;;;;;5130025;27;20074;-63
2023/12/27 09:10:48;;;;;;;88.60;27.88;;;11.20;99.90;;;;;;5112120;27;20115;-63
2023/12/27 09:13:15;;;;;;;66.78;25.40;;;11.20;99.90;;;;;;5126319;27;20161;-61
2023/12/27 09:15:42;;;;;;;74.95;26.90;;;11.30;99.90;;;;;;5128964;27;20072;-61
2023/12/27 09:18:08;;;;;;;71.20;27.20;;;11.40;99.90;;;;;;5129505;27;20099;-65
2023/12/27 09:20:35;;;;;;;59.75;25.08;;;11.40;99.90;;;;;;5129337;27;20100;-63
2023/12/27 09:23:01;;;;;;;79.57;26.42;;;11.40;99.90;;;;;;5130589;27;20470;-63
2023/12/27 09:25:29;;;;;;;59.50;24.60;;;11.40;99.90;;;;;;5129668;27;20072;-63
2023/12/27 09:27:55;;;;;;;78.30;26.45;;;11.40;99.90;;;;;;5129233;27;20091;-62
2023/12/27 09:30:22;;;;;;;82.53;26.15;;;11.40;99.90;;;;;;5128065;27;20083;-63
2023/12/27 09:32:49;;;;;;;86.15;29.33;;;11.40;99.90;;;;;;5130443;27;20432;-63
2023/12/27 09:35:15;;;;;;;75.03;29.48;;;11.40;99.90;;;;;;5128484;27;20570;-63
2023/12/27 09:37:42;;;;;;;88.20;30.25;;;11.40;99.90;;;;;;5130278;27;20112;-64
2023/12/27 09:40:09;;;;;;;78.13;29.55;;;11.30;99.90;;;;;;5129277;27;20087;-63
2023/12/27 09:42:39;;;;;;;83.68;29.90;;;11.30;99.90;;;;;;5107815;27;20112;-64
2023/12/27 09:45:11;;;;;;;94.60;31.52;;;11.20;99.90;;;;;;5127769;27;20103;-65
2023/12/27 09:47:39;;;;;;;76.50;29.10;;;11.10;99.90;;;;;;5127850;27;20158;-63
2023/12/27 09:50:07;;;;;;;92.88;30.33;;;11.20;99.90;;;;;;5127498;27;20076;-64
2023/12/27 09:52:36;;;;;;;80.55;30.50;;;11.20;99.90;;;;;;5109867;27;20162;-65
2023/12/27 09:55:03;;;;;;;88.45;30.27;;;11.30;99.90;;;;;;5128863;27;20076;-62
2023/12/27 09:57:31;;;;;;;80.28;28.33;;;11.30;99.90;;;;;;5128270;27;20071;-64
2023/12/27 09:59:59;;;;;;;88.18;30.27;;;11.20;99.90;;;;;;5126351;27;20124;-63
2023/12/27 10:02:31;;;;;;;74.70;29.25;;;11.20;99.90;;;;;;5110562;27;20071;-63
2023/12/27 10:05:06;;;;;;;75.43;29.67;;;11.20;99.90;;;;;;5127513;27;20080;-64
2023/12/27 10:07:38;;;;;;;76.50;30.92;;;11.20;99.90;;;;;;5126817;27;20141;-64
2023/12/27 10:10:10;;;;;;;82.90;29.35;;;11.30;99.90;;;;;;5126395;27;20186;-63
2023/12/27 10:12:36;;;;;;;77.43;29.65;;;11.30;99.90;;;;;;5108506;27;20451;-64
2023/12/27 10:15:04;;;;;;;71.57;28.00;;;11.10;99.90;;;;;;5127963;27;20075;-64
2023/12/27 10:17:31;;;;;;;67.43;28.25;;;11.00;99.90;;;;;;5109655;27;20099;-64
2023/12/27 10:19:57;;;;;;;79.35;25.73;;;11.00;99.90;;;;;;5128312;27;20068;-64
2023/12/27 10:22:24;;;;;;;70.18;25.63;;;11.00;99.90;;;;;;5128022;27;20533;-63
2023/12/27 10:24:50;;;;;;;71.25;24.35;;;11.10;99.90;;;;;;5127905;27;20080;-62
2023/12/27 10:27:17;;;;;;;;;;;11.10;99.90;;;;;;5125546;27;20444;-60
2023/12/27 10:29:49;;;;;;;59.63;24.67;;;11.10;99.90;;;;;;5128026;27;19999;-63
2023/12/27 10:32:17;;;;;;;54.95;21.75;;;11.10;99.90;;;;;;5128796;27;20567;-63
2023/12/27 10:34:44;;;;;;;53.40;20.88;;;11.10;99.90;;;;;;5128824;27;20063;-62
2023/12/27 10:37:12;;;;;;;54.80;21.40;;;11.20;99.90;;;;;;5126940;27;20125;-62
2023/12/27 10:39:46;;;;;;;56.78;20.60;;;11.20;99.90;;;;;;5129747;27;20099;-63
2023/12/27 10:42:16;;;;;;;48.05;20.73;;;11.10;99.90;;;;;;5126414;27;20125;-63
2023/12/27 10:44:49;;;;;;;44.90;19.45;;;11.20;99.90;;;;;;5128420;27;20556;-63
2023/12/27 10:47:19;;;;;;;54.13;19.83;;;11.20;99.90;;;;;;5127199;27;20581;-63
2023/12/27 10:49:50;;;;;;;51.33;17.88;;;11.10;99.90;;;;;;5127713;27;20094;-63
2023/12/27 10:52:19;;;;;;;35.00;18.55;;;11.20;99.90;;;;;;5125986;27;20088;-64
2023/12/27 10:54:50;;;;;;;41.22;17.15;;;11.20;99.90;;;;;;5127518;27;20099;-63
2023/12/27 10:57:22;;;;;;;45.00;16.67;;;11.20;99.90;;;;;;5127919;27;20522;-63
2023/12/27 10:59:50;;;;;;;42.38;16.60;;;11.20;99.90;;;;;;5125871;27;20163;-63
2023/12/27 11:02:18;;;;;;;37.72;16.48;;;11.20;99.90;;;;;;5128026;27;20106;-62
2023/12/27 11:04:46;;;;;;;31.60;17.00;;;11.10;99.90;;;;;;5128532;27;20080;-64
2023/12/27 11:07:13;;;;;;;38.17;15.82;;;11.20;99.90;;;;;;5127450;27;20071;-63
2023/12/27 11:09:41;;;;;;;36.95;15.98;;;11.20;99.90;;;;;;5126189;27;20166;-63
2023/12/27 11:12:09;;;;;;;37.28;15.68;;;11.20;99.90;;;;;;5126229;27;20076;-63
2023/12/27 11:14:37;;;;;;;32.65;15.40;;;11.30;99.90;;;;;;5125690;27;20080;-63
2023/12/27 11:17:09;;;;;;;40.92;15.65;;;11.20;99.90;;;;;;5126511;27;20068;-63
2023/12/27 11:19:36;;;;;;;36.95;15.90;;;11.10;99.90;;;;;;5124998;27;20094;-64
2023/12/27 11:22:03;;;;;;;34.28;16.50;;;11.10;99.90;;;;;;5128076;27;20453;-63
2023/12/27 11:24:29;;;;;;;35.97;15.57;;;11.00;99.90;;;;;;5126786;27;20079;-62
2023/12/27 11:27:02;;;;;;;38.40;16.58;;;11.00;99.90;;;;;;5128297;27;20179;-62
2023/12/27 11:29:29;;;;;;;47.97;18.33;;;11.00;99.90;;;;;;5127124;27;20079;-62
2023/12/27 11:32:00;;;;;;;43.33;17.40;;;11.00;99.90;;;;;;5126181;27;20522;-63
2023/12/27 11:34:27;;;;;;;39.90;17.30;;;10.90;99.90;;;;;;5105928;27;20076;-64
2023/12/27 11:36:54;;;;;;;40.58;17.17;;;11.00;99.90;;;;;;5127319;27;20082;-63
2023/12/27 11:39:28;;;;;;;37.95;17.13;;;10.90;99.90;;;;;;5108778;27;20101;-64
2023/12/27 11:41:54;;;;;;;41.25;17.25;;;10.80;99.90;;;;;;5123022;27;20198;-62
2023/12/27 11:44:21;;;;;;;38.65;16.95;;;10.90;99.90;;;;;;5126406;27;20067;-63
2023/12/27 11:46:48;;;;;;;33.03;16.08;;;10.90;99.90;;;;;;5126204;27;20072;-63
2023/12/27 11:49:21;;;;;;;50.75;18.75;;;10.90;99.90;;;;;;5125542;27;20429;-64
2023/12/27 11:51:48;;;;;;;36.72;17.35;;;11.00;99.90;;;;;;5126595;27;20413;-64
2023/12/27 11:54:22;;;;;;;34.13;16.55;;;10.80;99.90;;;;;;5105643;27;20103;-62
2023/12/27 11:56:50;;;;;;;41.60;17.42;;;11.00;99.90;;;;;;5126351;27;20078;-63
2023/12/27 11:59:16;;;;;;;31.95;15.05;;;11.00;99.90;;;;;;5106720;27;20422;-63
2023/12/27 12:01:43;;;;;;;37.35;17.17;;;11.00;99.90;;;;;;5124771;27;20190;-63
2023/12/27 12:05:01;;;;;;;35.83;16.65;;;10.90;99.90;;;;;;5107922;27;20193;-64
2023/12/27 12:07:33;;;;;;;34.38;16.17;;;10.90;99.90;;;;;;5081532;27;20125;-64
2023/12/27 12:10:00;;;;;;;33.78;16.52;;;10.90;99.90;;;;;;5126261;27;20079;-64
2023/12/27 12:12:27;;;;;;;34.75;16.90;;;10.90;99.90;;;;;;5125120;27;20068;-62
2023/12/27 12:14:54;;;;;;;42.78;17.63;;;10.70;99.90;;;;;;5125752;27;20522;-63
2023/12/27 12:17:22;;;;;;;36.22;16.77;;;10.70;99.90;;;;;;5127075;27;20165;-62
2023/12/27 12:19:49;;;;;;;38.30;17.38;;;10.70;99.90;;;;;;5123648;27;20094;-62
2023/12/27 12:22:16;;;;;;;37.50;16.75;;;10.60;99.90;;;;;;5125894;27;20095;-62
2023/12/27 12:24:44;;;;;;;30.55;16.35;;;10.60;99.90;;;;;;5125791;27;20598;-62
2023/12/27 12:27:14;;;;;;;40.25;16.27;;;10.50;99.90;;;;;;5126072;27;20158;-63
2023/12/27 12:29:41;;;;;;;39.28;17.02;;;10.60;99.90;;;;;;5123147;27;20071;-63
2023/12/27 12:32:07;;;;;;;39.42;17.23;;;10.70;99.90;;;;;;5125147;27;20125;-64
2023/12/27 12:34:34;;;;;;;35.30;17.02;;;10.70;99.90;;;;;;5126344;27;20075;-62